createdAt,value
2018-03-29T00:00:54.772Z,23.80
2018-03-29T00:01:54.926Z,25.30
2018-03-29T00:02:55.089Z,28.20
2018-03-29T00:03:55.248Z,29.30
2018-03-29T00:04:55.405Z,24.60
2018-03-29T00:05:55.574Z,27.00
2018-03-29T00:06:55.737Z,26.20
2018-03-29T00:07:55.891Z,26.00
2018-03-29T00:08:56.050Z,28.00
2018-03-29T00:09:56.210Z,25.70
2018-03-29T00:10:56.371Z,25.20
2018-03-29T00:11:56.526Z,24.40
2018-03-29T00:12:56.690Z,23.10
2018-03-29T00:13:56.863Z,23.10
2018-03-29T00:14:57.022Z,22.60
2018-03-29T00:15:57.181Z,21.30
2018-03-29T00:16:57.342Z,23.80
2018-03-29T00:17:57.495Z,20.90
2018-03-29T00:18:57.662Z,22.10
2018-03-29T00:19:57.832Z,20.40
2018-03-29T00:20:58.050Z,21.70
2018-03-29T00:21:58.096Z,21.70
2018-03-29T00:22:58.284Z,21.50
2018-03-29T00:23:58.444Z,20.80
2018-03-29T00:24:58.633Z,20.40
2018-03-29T00:25:58.779Z,20.10
2018-03-29T00:26:58.948Z,20.10
2018-03-29T00:27:59.106Z,19.60
2018-03-29T00:28:59.241Z,21.70
2018-03-29T00:29:59.386Z,20.70
2018-03-29T00:30:59.563Z,20.00
2018-03-29T00:31:59.729Z,20.50
2018-03-29T00:32:59.865Z,21.10
2018-03-29T00:34:00.059Z,19.50
2018-03-29T00:35:00.181Z,21.80
2018-03-29T00:36:00.450Z,22.50
2018-03-29T00:37:00.492Z,23.70
2018-03-29T00:38:00.645Z,21.80
2018-03-29T00:39:00.800Z,20.10
2018-03-29T00:40:00.959Z,21.80
2018-03-29T00:41:01.111Z,22.90
2018-03-29T00:42:01.272Z,22.10
2018-03-29T00:43:01.440Z,21.80
2018-03-29T00:44:01.582Z,22.20
2018-03-29T00:45:01.781Z,20.60
2018-03-29T00:46:01.904Z,21.00
2018-03-29T00:47:02.083Z,21.50
2018-03-29T00:48:02.216Z,21.20
2018-03-29T00:49:02.354Z,21.80
2018-03-29T00:50:02.511Z,22.30
2018-03-29T00:51:02.680Z,21.70
2018-03-29T00:52:02.834Z,20.10
2018-03-29T00:53:02.966Z,22.10
2018-03-29T00:54:03.132Z,21.60
2018-03-29T00:55:03.277Z,22.00
2018-03-29T00:56:03.458Z,19.80
2018-03-29T00:57:03.644Z,20.50
2018-03-29T00:58:03.757Z,19.50
2018-03-29T00:59:03.915Z,19.90
2018-03-29T01:00:04.065Z,21.50
2018-03-29T01:01:04.223Z,21.80
2018-03-29T01:02:04.387Z,22.00
2018-03-29T01:03:04.530Z,22.40
2018-03-29T01:04:04.688Z,19.10
2018-03-29T01:05:04.831Z,19.90
2018-03-29T01:06:04.995Z,20.60
2018-03-29T01:07:05.151Z,20.60
2018-03-29T01:08:05.317Z,19.50
2018-03-29T01:09:05.501Z,19.30
2018-03-29T01:10:05.661Z,19.20
2018-03-29T01:11:05.786Z,18.60
2018-03-29T01:12:05.979Z,17.70
2018-03-29T01:13:06.236Z,18.80
2018-03-29T01:14:06.322Z,19.00
2018-03-29T01:15:06.422Z,19.90
2018-03-29T01:16:06.693Z,18.40
2018-03-29T01:17:06.782Z,18.60
2018-03-29T01:18:06.946Z,19.80
2018-03-29T01:19:07.138Z,19.40
2018-03-29T01:20:07.331Z,20.40
2018-03-29T01:21:07.452Z,21.00
2018-03-29T01:22:07.673Z,21.80
2018-03-29T01:23:08.426Z,21.70
2018-03-29T01:24:07.941Z,21.10
2018-03-29T01:25:08.010Z,22.60
2018-03-29T01:26:08.172Z,23.30
2018-03-29T01:27:08.611Z,23.00
2018-03-29T01:28:08.644Z,21.70
2018-03-29T01:29:08.735Z,22.00
2018-03-29T01:30:08.892Z,21.20
2018-03-29T01:32:03.223Z,21.50
2018-03-29T01:33:02.355Z,18.60
2018-03-29T01:34:02.533Z,20.50
2018-03-29T01:35:02.825Z,22.50
2018-03-29T01:38:29.049Z,14.40
2018-03-29T01:39:29.174Z,16.80
2018-03-29T01:40:29.341Z,16.20
2018-03-29T01:41:29.528Z,14.60
2018-03-29T01:42:29.655Z,15.00
2018-03-29T01:43:29.824Z,15.10
2018-03-29T01:44:30.017Z,16.10
2018-03-29T01:45:30.145Z,15.90
2018-03-29T01:46:30.326Z,16.00
2018-03-29T01:47:30.629Z,16.40
2018-03-29T01:48:30.723Z,16.10
2018-03-29T01:49:31.024Z,15.90
2018-03-29T01:50:31.010Z,14.50
2018-03-29T01:51:31.382Z,15.00
2018-03-29T01:52:31.408Z,13.30
2018-03-29T01:53:31.596Z,14.90
2018-03-29T01:54:32.005Z,14.40
2018-03-29T01:55:32.062Z,13.90
2018-03-29T01:56:32.178Z,12.60
2018-03-29T01:57:32.356Z,11.90
2018-03-29T01:58:32.446Z,13.40
2018-03-29T01:59:32.627Z,13.20
2018-03-29T02:00:32.766Z,13.20
2018-03-29T02:01:33.090Z,14.30
2018-03-29T02:02:33.182Z,15.60
2018-03-29T02:03:33.373Z,13.20
2018-03-29T02:04:33.533Z,12.40
2018-03-29T02:05:33.796Z,12.90
2018-03-29T02:06:33.947Z,12.90
2018-03-29T02:07:34.123Z,13.70
2018-03-29T02:08:34.100Z,13.00
2018-03-29T02:09:34.429Z,13.30
2018-03-29T02:10:34.525Z,13.10
2018-03-29T02:11:34.643Z,12.70
2018-03-29T02:12:34.787Z,12.10
2018-03-29T02:13:35.023Z,13.30
2018-03-29T02:14:35.322Z,12.40
2018-03-29T02:15:35.340Z,12.20
2018-03-29T02:16:35.671Z,11.70
2018-03-29T02:17:35.713Z,11.80
2018-03-29T02:18:35.968Z,11.40
2018-03-29T02:19:36.139Z,11.70
2018-03-29T02:20:37.256Z,9.40
2018-03-29T02:21:36.415Z,8.90
2018-03-29T02:22:36.635Z,9.10
2018-03-29T02:23:36.861Z,8.60
2018-03-29T02:24:36.905Z,8.80
2018-03-29T02:25:37.228Z,9.20
2018-03-29T02:26:37.535Z,8.70
2018-03-29T02:27:37.353Z,9.20
2018-03-29T02:28:37.495Z,8.20
2018-03-29T02:29:37.638Z,8.60
2018-03-29T02:30:38.615Z,8.00
2018-03-29T02:31:38.181Z,7.00
2018-03-29T02:32:38.230Z,6.40
2018-03-29T02:33:38.538Z,6.70
2018-03-29T02:34:38.556Z,6.50
2018-03-29T02:35:38.632Z,7.20
2018-03-29T02:36:38.814Z,7.50
2018-03-29T02:37:38.955Z,6.70
2018-03-29T02:38:40.224Z,7.00
2018-03-29T02:39:39.287Z,6.40
2018-03-29T02:40:39.494Z,7.20
2018-03-29T02:41:39.554Z,6.00
2018-03-29T02:42:39.828Z,6.30
2018-03-29T02:43:40.030Z,6.00
2018-03-29T02:44:40.135Z,5.90
2018-03-29T02:45:40.356Z,5.70
2018-03-29T02:46:40.437Z,5.60
2018-03-29T02:47:40.704Z,5.60
2018-03-29T02:48:40.893Z,5.90
2018-03-29T02:49:40.931Z,5.50
2018-03-29T02:50:41.184Z,5.80
2018-03-29T02:51:41.285Z,5.20
2018-03-29T02:52:41.409Z,5.40
2018-03-29T02:53:41.626Z,6.70
2018-03-29T02:54:41.818Z,5.90
2018-03-29T02:55:42.150Z,6.00
2018-03-29T02:56:42.673Z,5.20
2018-03-29T02:57:42.229Z,8.40
2018-03-29T02:58:42.409Z,6.00
2018-03-29T02:59:42.588Z,6.00
2018-03-29T03:00:42.664Z,5.60
2018-03-29T03:01:42.936Z,5.80
2018-03-29T03:02:43.393Z,6.10
2018-03-29T03:03:43.119Z,6.40
2018-03-29T03:04:43.395Z,6.10
2018-03-29T03:05:43.477Z,5.90
2018-03-29T03:06:43.612Z,5.60
2018-03-29T03:07:43.777Z,6.10
2018-03-29T03:08:43.983Z,5.70
2018-03-29T03:09:44.254Z,5.80
2018-03-29T03:10:44.318Z,5.10
2018-03-29T03:11:44.478Z,6.10
2018-03-29T03:12:44.730Z,5.50
2018-03-29T03:13:44.800Z,6.10
2018-03-29T03:14:45.109Z,5.60
2018-03-29T03:15:45.294Z,6.10
2018-03-29T03:16:45.211Z,5.70
2018-03-29T03:17:46.566Z,5.50
2018-03-29T03:18:46.839Z,5.60
2018-03-29T03:19:45.800Z,5.90
2018-03-29T03:20:46.181Z,5.80
2018-03-29T03:21:46.231Z,5.90
2018-03-29T03:22:46.582Z,6.10
2018-03-29T03:23:46.447Z,5.80
2018-03-29T03:24:46.730Z,5.80
2018-03-29T03:25:46.768Z,5.30
2018-03-29T03:26:46.977Z,5.50
2018-03-29T03:27:47.095Z,5.40
2018-03-29T03:28:47.406Z,5.50
2018-03-29T03:29:47.586Z,6.10
2018-03-29T03:30:47.635Z,5.60
2018-03-29T03:31:47.819Z,6.00
2018-03-29T03:32:48.243Z,5.70
2018-03-29T03:33:48.109Z,6.00
2018-03-29T03:34:48.245Z,5.50
2018-03-29T03:35:48.567Z,6.40
2018-03-29T03:36:48.699Z,6.90
2018-03-29T03:37:48.690Z,6.60
2018-03-29T03:38:48.889Z,7.30
2018-03-29T03:39:49.064Z,6.40
2018-03-29T03:40:49.322Z,7.40
2018-03-29T03:41:49.499Z,7.60
2018-03-29T03:42:49.682Z,7.70
2018-03-29T03:43:50.878Z,7.80
2018-03-29T03:44:51.213Z,7.30
2018-03-29T03:45:51.273Z,7.00
2018-03-29T03:46:51.362Z,8.50
2018-03-29T03:47:51.671Z,7.80
2018-03-29T03:48:51.832Z,7.80
2018-03-29T03:49:51.806Z,8.60
2018-03-29T03:50:52.041Z,8.70
2018-03-29T03:51:51.424Z,9.20
2018-03-29T03:52:51.566Z,9.30
2018-03-29T03:53:51.703Z,9.20
2018-03-29T03:54:51.936Z,9.40
2018-03-29T03:55:52.209Z,10.10
2018-03-29T03:56:52.278Z,9.30
2018-03-29T03:57:52.349Z,10.10
2018-03-29T03:58:52.546Z,10.90
2018-03-29T03:59:52.787Z,10.30
2018-03-29T04:00:52.803Z,10.30
2018-03-29T04:01:53.010Z,10.60
2018-03-29T04:02:52.906Z,10.70
2018-03-29T04:03:53.228Z,11.60
2018-03-29T04:04:53.183Z,12.20
2018-03-29T04:05:53.384Z,12.50
2018-03-29T04:06:53.525Z,12.40
2018-03-29T04:07:53.610Z,15.00
2018-03-29T04:08:54.589Z,12.40
2018-03-29T04:09:54.113Z,12.50
2018-03-29T04:10:54.278Z,12.70
2018-03-29T04:11:54.426Z,11.90
2018-03-29T04:12:54.545Z,12.80
2018-03-29T04:13:54.739Z,12.90
2018-03-29T04:14:54.909Z,11.90
2018-03-29T04:15:55.132Z,12.10
2018-03-29T04:16:55.331Z,12.70
2018-03-29T04:17:55.464Z,11.80
2018-03-29T04:18:55.682Z,12.60
2018-03-29T04:19:55.765Z,13.10
2018-03-29T04:20:55.919Z,12.40
2018-03-29T04:21:56.119Z,13.80
2018-03-29T04:22:56.236Z,13.70
2018-03-29T04:23:57.149Z,13.10
2018-03-29T04:24:56.648Z,13.10
2018-03-29T04:25:56.848Z,13.50
2018-03-29T04:26:56.907Z,13.50
2018-03-29T04:27:56.948Z,12.80
2018-03-29T04:28:57.089Z,12.80
2018-03-29T04:29:57.283Z,13.30
2018-03-29T04:30:57.381Z,13.20
2018-03-29T04:31:57.675Z,12.80
2018-03-29T04:32:57.717Z,13.00
2018-03-29T04:33:57.815Z,13.20
2018-03-29T04:34:58.083Z,13.60
2018-03-29T04:35:58.194Z,13.70
2018-03-29T04:36:58.532Z,12.70
2018-03-29T04:37:58.512Z,12.90
2018-03-29T04:38:58.843Z,13.10
2018-03-29T04:39:58.902Z,13.50
2018-03-29T04:40:59.080Z,12.80
2018-03-29T04:41:59.557Z,13.30
2018-03-29T04:42:59.386Z,13.60
2018-03-29T04:43:59.559Z,13.70
2018-03-29T04:44:59.696Z,13.80
2018-03-29T04:46:01.686Z,12.30
2018-03-29T04:46:59.871Z,12.80
2018-03-29T04:48:00.183Z,11.40
2018-03-29T04:49:00.511Z,11.50
2018-03-29T04:50:00.435Z,12.10
2018-03-29T04:51:00.710Z,12.70
2018-03-29T04:52:00.783Z,12.40
2018-03-29T04:53:01.035Z,11.50
2018-03-29T04:54:01.281Z,12.60
2018-03-29T04:55:01.311Z,12.20
2018-03-29T04:56:01.423Z,11.80
2018-03-29T04:57:01.812Z,12.50
2018-03-29T04:58:01.924Z,12.50
2018-03-29T04:59:02.013Z,12.90
2018-03-29T05:00:02.042Z,13.00
2018-03-29T05:01:02.217Z,12.80
2018-03-29T05:02:02.511Z,12.80
2018-03-29T05:03:02.501Z,11.70
2018-03-29T05:04:02.657Z,12.50
2018-03-29T05:05:03.112Z,11.80
2018-03-29T05:06:03.011Z,11.60
2018-03-29T05:07:03.224Z,12.30
2018-03-29T05:08:03.400Z,12.10
2018-03-29T05:09:03.718Z,12.50
2018-03-29T05:10:03.642Z,12.80
2018-03-29T05:11:03.751Z,12.50
2018-03-29T05:12:03.950Z,13.00
2018-03-29T05:13:04.193Z,12.90
2018-03-29T05:14:04.339Z,12.60
2018-03-29T05:15:04.496Z,12.70
2018-03-29T05:16:04.719Z,13.10
2018-03-29T05:17:04.899Z,12.50
2018-03-29T05:18:05.059Z,13.50
2018-03-29T05:19:05.172Z,13.30
2018-03-29T05:20:05.277Z,12.90
2018-03-29T05:21:05.490Z,13.20
2018-03-29T05:22:05.596Z,13.40
2018-03-29T05:23:05.777Z,14.20
2018-03-29T05:24:06.070Z,13.60
2018-03-29T05:25:06.122Z,13.00
2018-03-29T05:26:07.048Z,13.40
2018-03-29T05:27:06.560Z,13.50
2018-03-29T05:28:06.664Z,14.50
2018-03-29T05:29:06.829Z,13.60
2018-03-29T05:30:06.949Z,14.20
2018-03-29T05:31:07.093Z,14.00
2018-03-29T05:32:07.486Z,13.70
2018-03-29T05:33:07.504Z,14.20
2018-03-29T05:34:07.618Z,15.20
2018-03-29T05:35:07.807Z,13.80
2018-03-29T05:36:08.012Z,13.40
2018-03-29T05:37:08.158Z,13.60
2018-03-29T05:38:08.458Z,13.40
2018-03-29T05:39:08.509Z,13.10
2018-03-29T05:40:08.642Z,13.50
2018-03-29T05:41:08.883Z,14.60
2018-03-29T05:42:08.999Z,14.20
2018-03-29T05:43:09.195Z,13.80
2018-03-29T05:44:09.392Z,14.00
2018-03-29T05:45:09.601Z,14.10
2018-03-29T05:46:09.826Z,14.70
2018-03-29T05:47:09.810Z,13.20
2018-03-29T05:48:10.081Z,13.50
2018-03-29T05:49:10.251Z,13.90
2018-03-29T05:50:10.434Z,14.30
2018-03-29T05:51:10.536Z,13.80
2018-03-29T05:52:10.797Z,14.30
2018-03-29T05:53:10.920Z,13.30
2018-03-29T05:54:11.167Z,13.40
2018-03-29T05:55:11.298Z,13.60
2018-03-29T05:56:11.398Z,14.00
2018-03-29T05:57:11.618Z,14.30
2018-03-29T05:58:11.824Z,14.50
2018-03-29T05:59:11.953Z,14.50
2018-03-29T06:00:12.063Z,14.00
2018-03-29T06:01:12.294Z,13.90
2018-03-29T06:02:12.431Z,13.00
2018-03-29T06:03:12.686Z,13.50
2018-03-29T06:04:12.757Z,13.70
2018-03-29T06:05:13.608Z,13.60
2018-03-29T06:06:13.110Z,13.20
2018-03-29T06:07:13.268Z,14.70
2018-03-29T06:08:13.506Z,14.10
2018-03-29T06:09:13.656Z,13.80
2018-03-29T06:10:13.861Z,13.10
2018-03-29T06:11:14.085Z,13.20
2018-03-29T06:12:14.171Z,13.90
2018-03-29T06:13:14.288Z,13.80
2018-03-29T06:14:14.627Z,14.00
2018-03-29T06:15:14.722Z,13.60
2018-03-29T06:16:14.937Z,14.00
2018-03-29T06:17:15.100Z,14.10
2018-03-29T06:18:15.163Z,14.50
2018-03-29T06:19:15.351Z,13.50
2018-03-29T06:20:15.485Z,13.50
2018-03-29T06:21:15.783Z,13.80
2018-03-29T06:22:15.934Z,12.90
2018-03-29T06:23:16.160Z,13.90
2018-03-29T06:24:16.274Z,13.30
2018-03-29T06:25:16.473Z,13.10
2018-03-29T06:26:16.501Z,13.30
2018-03-29T06:27:16.902Z,13.20
2018-03-29T06:28:16.906Z,13.00
2018-03-29T06:29:17.072Z,12.90
2018-03-29T06:30:17.283Z,13.20
2018-03-29T06:31:17.434Z,13.40
2018-03-29T06:32:17.614Z,13.60
2018-03-29T06:33:18.674Z,12.60
2018-03-29T06:34:17.910Z,13.10
2018-03-29T06:35:18.096Z,12.50
2018-03-29T06:36:18.365Z,13.20
2018-03-29T06:37:18.453Z,12.60
2018-03-29T06:38:18.709Z,12.40
2018-03-29T06:39:18.842Z,13.30
2018-03-29T06:40:18.939Z,12.10
2018-03-29T06:41:19.129Z,12.50
2018-03-29T06:42:19.327Z,13.00
2018-03-29T06:43:19.449Z,12.60
2018-03-29T06:44:19.715Z,13.10
2018-03-29T06:45:19.843Z,13.10
2018-03-29T06:46:20.601Z,13.30
2018-03-29T06:47:20.207Z,13.90
2018-03-29T06:48:20.278Z,14.00
2018-03-29T06:49:20.495Z,14.60
2018-03-29T06:50:20.727Z,14.60
2018-03-29T06:51:20.981Z,14.00
2018-03-29T06:52:21.182Z,14.80
2018-03-29T06:53:21.456Z,14.40
2018-03-29T06:54:21.396Z,14.30
2018-03-29T06:55:21.534Z,13.90
2018-03-29T06:56:21.698Z,15.00
2018-03-29T06:57:21.879Z,14.90
2018-03-29T06:58:22.118Z,15.10
2018-03-29T06:59:22.227Z,15.60
2018-03-29T07:00:22.448Z,15.50
2018-03-29T07:01:22.562Z,15.90
2018-03-29T07:02:22.705Z,15.00
2018-03-29T07:03:22.984Z,15.00
2018-03-29T07:04:23.048Z,14.90
2018-03-29T07:05:23.428Z,15.30
2018-03-29T07:06:23.562Z,14.60
2018-03-29T07:07:23.522Z,15.20
2018-03-29T07:08:23.726Z,15.70
2018-03-29T07:09:24.045Z,16.00
2018-03-29T07:10:24.012Z,15.40
2018-03-29T07:11:24.261Z,14.90
2018-03-29T07:12:24.491Z,14.90
2018-03-29T07:13:24.590Z,15.50
2018-03-29T07:14:24.791Z,15.80
2018-03-29T07:15:25.113Z,14.80
2018-03-29T07:16:25.299Z,14.20
2018-03-29T07:17:25.397Z,13.90
2018-03-29T07:18:25.837Z,14.40
2018-03-29T07:19:25.903Z,14.20
2018-03-29T07:20:26.010Z,14.40
2018-03-29T07:21:26.100Z,14.00
2018-03-29T07:22:26.250Z,14.60
2018-03-29T07:23:26.846Z,13.60
2018-03-29T07:24:26.708Z,13.60
2018-03-29T07:25:26.712Z,14.90
2018-03-29T07:26:26.909Z,14.70
2018-03-29T07:27:27.266Z,14.20
2018-03-29T07:28:27.190Z,14.40
2018-03-29T07:29:27.523Z,14.60
2018-03-29T07:30:27.678Z,13.90
2018-03-29T07:31:27.772Z,14.70
2018-03-29T07:32:27.989Z,14.90
2018-03-29T07:33:28.173Z,14.70
2018-03-29T07:34:28.650Z,13.20
2018-03-29T07:35:28.673Z,14.50
2018-03-29T07:36:28.740Z,15.50
2018-03-29T07:37:28.858Z,14.40
2018-03-29T07:38:29.114Z,13.10
2018-03-29T07:39:29.156Z,13.80
2018-03-29T07:40:29.439Z,13.30
2018-03-29T07:41:29.352Z,14.20
2018-03-29T07:42:29.590Z,14.70
2018-03-29T07:43:29.708Z,13.60
2018-03-29T07:44:30.047Z,14.20
2018-03-29T07:45:30.802Z,14.40
2018-03-29T07:46:30.226Z,14.10
2018-03-29T07:47:30.464Z,14.20
2018-03-29T07:48:30.637Z,13.50
2018-03-29T07:49:30.701Z,14.00
2018-03-29T07:50:30.857Z,14.40
2018-03-29T07:51:30.844Z,14.30
2018-03-29T07:52:31.360Z,14.40
2018-03-29T07:53:31.309Z,15.40
2018-03-29T07:54:31.974Z,15.10
2018-03-29T07:55:31.876Z,13.60
2018-03-29T07:56:32.335Z,13.70
2018-03-29T07:57:31.993Z,14.50
2018-03-29T07:58:32.093Z,14.60
2018-03-29T07:59:32.275Z,13.40
2018-03-29T08:00:32.590Z,13.70
2018-03-29T08:01:32.637Z,14.10
2018-03-29T08:02:32.905Z,14.30
2018-03-29T08:03:33.080Z,13.50
2018-03-29T08:04:33.144Z,14.50
2018-03-29T08:05:33.415Z,13.40
2018-03-29T08:06:33.529Z,14.40
2018-03-29T08:07:33.798Z,13.60
2018-03-29T08:08:33.889Z,12.50
2018-03-29T08:09:34.149Z,13.00
2018-03-29T08:10:34.235Z,12.40
2018-03-29T08:11:34.403Z,12.00
2018-03-29T08:12:34.688Z,12.60
2018-03-29T08:13:34.917Z,12.90
2018-03-29T08:14:34.976Z,12.40
2018-03-29T08:15:35.214Z,12.40
2018-03-29T08:16:35.281Z,12.10
2018-03-29T08:17:35.488Z,12.30
2018-03-29T08:18:35.728Z,14.10
2018-03-29T08:19:35.861Z,12.70
2018-03-29T08:20:36.078Z,12.10
2018-03-29T08:21:36.323Z,12.20
2018-03-29T08:22:36.668Z,12.70
2018-03-29T08:23:36.610Z,12.40
2018-03-29T08:24:36.783Z,12.50
2018-03-29T08:25:36.987Z,11.70
2018-03-29T08:26:37.044Z,12.40
2018-03-29T08:27:37.255Z,12.60
2018-03-29T08:28:38.332Z,11.50
2018-03-29T08:29:38.260Z,11.60
2018-03-29T08:30:38.147Z,12.80
2018-03-29T08:31:38.348Z,13.10
2018-03-29T08:32:38.193Z,13.10
2018-03-29T08:33:38.966Z,13.00
2018-03-29T08:34:38.732Z,13.50
2018-03-29T08:35:38.970Z,13.30
2018-03-29T08:36:38.729Z,13.70
2018-03-29T08:37:38.826Z,14.50
2018-03-29T08:38:39.029Z,13.20
2018-03-29T08:39:41.996Z,13.60
2018-03-29T08:40:39.511Z,14.10
2018-03-29T08:41:40.318Z,13.80
2018-03-29T08:42:39.834Z,14.30
2018-03-29T08:43:39.967Z,13.60
2018-03-29T08:44:40.047Z,13.50
2018-03-29T08:45:40.134Z,14.10
2018-03-29T08:46:40.323Z,13.80
2018-03-29T08:47:40.586Z,13.50
2018-03-29T08:48:40.676Z,14.80
2018-03-29T08:49:40.823Z,14.50
2018-03-29T08:50:41.368Z,15.70
2018-03-29T08:51:41.522Z,14.50
2018-03-29T08:52:41.553Z,15.10
2018-03-29T08:53:41.860Z,15.20
2018-03-29T08:54:41.610Z,16.00
2018-03-29T08:55:41.831Z,15.40
2018-03-29T08:56:41.939Z,15.50
2018-03-29T08:57:42.156Z,15.80
2018-03-29T08:58:42.445Z,15.90
2018-03-29T08:59:42.578Z,15.30
2018-03-29T09:00:42.652Z,15.40
2018-03-29T09:01:43.211Z,14.50
2018-03-29T09:02:43.068Z,15.40
2018-03-29T09:03:43.260Z,15.40
2018-03-29T09:04:43.220Z,15.30
2018-03-29T09:05:43.351Z,14.90
2018-03-29T09:06:43.442Z,15.70
2018-03-29T09:07:43.586Z,15.00
2018-03-29T09:08:43.826Z,15.40
2018-03-29T09:09:43.917Z,13.90
2018-03-29T09:10:44.233Z,13.60
2018-03-29T09:11:44.326Z,14.20
2018-03-29T09:12:44.506Z,14.50
2018-03-29T09:13:44.655Z,14.90
2018-03-29T09:14:45.076Z,13.90
2018-03-29T09:15:45.260Z,14.20
2018-03-29T09:16:45.070Z,14.20
2018-03-29T09:17:45.372Z,13.40
2018-03-29T09:19:37.559Z,14.60
2018-03-29T09:23:32.551Z,13.90
2018-03-29T09:24:32.088Z,14.90
2018-03-29T09:27:17.852Z,14.70
2018-03-29T09:28:16.837Z,14.30
2018-03-29T09:30:23.886Z,14.80
2018-03-29T09:31:40.293Z,15.40
2018-03-29T09:32:17.370Z,14.30
2018-03-29T09:33:24.406Z,14.70
2018-03-29T09:34:17.930Z,14.10
2018-03-29T09:35:20.576Z,13.10
2018-03-29T09:36:17.740Z,14.30
2018-03-29T09:37:23.052Z,14.20
2018-03-29T09:39:19.745Z,14.10
2018-03-29T09:40:19.392Z,13.80
2018-03-29T09:41:21.237Z,12.50
2018-03-29T09:42:20.387Z,12.90
2018-03-29T09:43:20.219Z,13.70
2018-03-29T09:44:20.899Z,12.90
2018-03-29T09:45:19.975Z,12.70
2018-03-29T09:46:20.039Z,12.40
2018-03-29T09:47:23.339Z,12.20
2018-03-29T09:49:22.534Z,11.20
2018-03-29T09:51:20.315Z,11.20
2018-03-29T09:52:21.596Z,10.90
2018-03-29T09:53:20.916Z,11.00
2018-03-29T09:54:20.788Z,10.70
2018-03-29T09:55:22.261Z,11.10
2018-03-29T09:56:25.670Z,11.20
2018-03-29T09:57:21.245Z,10.40
2018-03-29T09:58:21.661Z,11.10
2018-03-29T09:59:21.604Z,10.80
2018-03-29T10:00:22.382Z,10.40
2018-03-29T10:01:21.954Z,10.90
2018-03-29T10:02:22.227Z,10.60
2018-03-29T10:03:22.302Z,10.90
2018-03-29T10:04:22.601Z,11.20
2018-03-29T10:05:22.614Z,10.60
2018-03-29T10:06:22.905Z,11.20
2018-03-29T10:07:22.936Z,10.10
2018-03-29T10:08:23.453Z,10.60
2018-03-29T10:09:23.240Z,11.40
2018-03-29T10:10:23.624Z,10.50
2018-03-29T10:11:23.541Z,11.10
2018-03-29T10:13:58.469Z,10.60
2018-03-29T10:14:58.553Z,11.50
2018-03-29T10:15:58.860Z,11.00
2018-03-29T10:16:58.892Z,11.00
2018-03-29T10:17:59.178Z,11.20
2018-03-29T10:18:59.176Z,10.90
2018-03-29T10:19:59.482Z,10.70
2018-03-29T10:20:59.512Z,10.40
2018-03-29T10:21:59.768Z,10.90
2018-03-29T10:22:59.833Z,11.60
2018-03-29T10:24:00.135Z,11.00
2018-03-29T10:25:00.189Z,10.90
2018-03-29T10:26:00.474Z,10.80
2018-03-29T10:27:00.509Z,10.60
2018-03-29T10:28:00.733Z,11.10
2018-03-29T10:29:01.718Z,9.80
2018-03-29T10:30:01.097Z,10.90
2018-03-29T10:31:01.252Z,10.70
2018-03-29T10:32:01.509Z,11.00
2018-03-29T10:33:01.535Z,11.30
2018-03-29T10:34:02.401Z,10.80
2018-03-29T10:35:01.889Z,11.10
2018-03-29T10:36:02.124Z,11.60
2018-03-29T10:37:02.206Z,10.90
2018-03-29T10:38:03.533Z,11.30
2018-03-29T10:39:03.407Z,11.50
2018-03-29T10:40:02.746Z,11.10
2018-03-29T10:41:02.876Z,10.30
2018-03-29T10:42:03.140Z,10.80
2018-03-29T10:43:03.132Z,11.50
2018-03-29T10:44:03.442Z,11.60
2018-03-29T10:45:03.458Z,10.80
2018-03-29T10:46:03.712Z,10.90
2018-03-29T10:47:03.822Z,10.70
2018-03-29T10:48:03.955Z,11.10
2018-03-29T10:49:04.078Z,11.50
2018-03-29T10:50:05.230Z,11.20
2018-03-29T10:51:04.364Z,11.30
2018-03-29T10:52:05.473Z,10.80
2018-03-29T10:53:04.692Z,11.10
2018-03-29T10:54:04.896Z,11.20
2018-03-29T10:55:04.964Z,10.70
2018-03-29T10:56:05.463Z,11.00
2018-03-29T10:57:05.298Z,11.00
2018-03-29T10:58:06.816Z,11.10
2018-03-29T10:59:05.689Z,12.50
2018-03-29T11:00:06.928Z,10.80
2018-03-29T11:01:06.098Z,10.60
2018-03-29T11:02:07.250Z,10.80
2018-03-29T11:03:06.399Z,11.20
2018-03-29T11:04:06.648Z,11.40
2018-03-29T11:05:07.394Z,11.70
2018-03-29T11:06:06.968Z,12.10
2018-03-29T11:07:07.176Z,12.40
2018-03-29T11:08:07.279Z,12.80
2018-03-29T11:09:07.376Z,12.80
2018-03-29T11:10:07.622Z,13.30
2018-03-29T11:11:07.855Z,12.80
2018-03-29T11:12:08.078Z,13.10
2018-03-29T11:13:08.081Z,13.00
2018-03-29T11:14:08.424Z,14.00
2018-03-29T11:15:08.397Z,12.60
2018-03-29T11:16:08.688Z,12.50
2018-03-29T11:17:09.029Z,13.30
2018-03-29T11:18:08.987Z,12.90
2018-03-29T11:19:09.132Z,13.50
2018-03-29T11:20:11.410Z,13.40
2018-03-29T11:21:09.370Z,13.30
2018-03-29T11:22:10.742Z,12.70
2018-03-29T11:23:09.813Z,13.10
2018-03-29T11:24:11.137Z,13.00
2018-03-29T11:25:10.937Z,13.50
2018-03-29T11:26:10.413Z,13.10
2018-03-29T11:27:10.591Z,12.90
2018-03-29T11:28:10.818Z,13.50
2018-03-29T11:29:10.889Z,13.20
2018-03-29T11:30:11.189Z,13.60
2018-03-29T11:31:11.328Z,14.00
2018-03-29T11:32:11.587Z,12.50
2018-03-29T11:33:11.922Z,13.60
2018-03-29T11:34:12.199Z,12.30
2018-03-29T11:35:12.086Z,12.40
2018-03-29T11:36:13.342Z,13.20
2018-03-29T11:37:12.322Z,12.60
2018-03-29T11:38:12.518Z,12.30
2018-03-29T11:39:12.668Z,13.70
2018-03-29T11:40:12.966Z,12.40
2018-03-29T11:41:13.915Z,12.40
2018-03-29T11:42:13.361Z,12.40
2018-03-29T11:43:13.940Z,11.90
2018-03-29T11:44:14.440Z,12.30
2018-03-29T11:45:13.777Z,12.50
2018-03-29T11:46:14.046Z,11.80
2018-03-29T11:47:14.173Z,11.50
2018-03-29T11:48:14.510Z,11.20
2018-03-29T11:49:14.514Z,10.90
2018-03-29T11:50:14.902Z,11.50
2018-03-29T11:51:15.422Z,11.30
2018-03-29T11:52:15.164Z,11.60
2018-03-29T11:53:15.267Z,12.80
2018-03-29T11:54:16.350Z,11.60
2018-03-29T11:55:15.926Z,10.60
2018-03-29T11:56:16.831Z,10.60
2018-03-29T11:57:16.413Z,10.90
2018-03-29T11:58:16.031Z,11.30
2018-03-29T11:59:16.066Z,11.10
2018-03-29T12:00:17.376Z,12.40
2018-03-29T12:01:16.394Z,12.10
2018-03-29T12:02:16.669Z,12.40
2018-03-29T12:03:16.672Z,11.90
2018-03-29T12:04:17.027Z,11.80
2018-03-29T12:05:17.097Z,11.40
2018-03-29T12:06:19.454Z,12.10
2018-03-29T12:07:17.477Z,12.30
2018-03-29T12:08:17.656Z,11.60
2018-03-29T12:09:17.859Z,11.70
2018-03-29T12:10:18.115Z,11.10
2018-03-29T12:11:18.235Z,11.90
2018-03-29T12:12:18.408Z,11.40
2018-03-29T12:13:18.621Z,11.00
2018-03-29T12:14:18.912Z,10.50
2018-03-29T12:15:19.821Z,9.50
2018-03-29T12:16:19.848Z,10.80
2018-03-29T12:17:19.362Z,9.70
2018-03-29T12:18:19.707Z,10.20
2018-03-29T12:19:19.831Z,9.90
2018-03-29T12:20:20.103Z,10.30
2018-03-29T12:21:20.175Z,10.00
2018-03-29T12:22:20.436Z,10.00
2018-03-29T12:23:20.549Z,9.60
2018-03-29T12:24:21.770Z,9.70
2018-03-29T12:25:20.908Z,10.10
2018-03-29T12:26:22.430Z,10.10
2018-03-29T12:27:21.218Z,10.80
2018-03-29T12:28:21.785Z,10.10
2018-03-29T12:29:21.557Z,10.80
2018-03-29T12:30:21.809Z,10.80
2018-03-29T12:31:22.087Z,10.50
2018-03-29T12:32:22.156Z,10.60
2018-03-29T12:33:22.219Z,10.10
2018-03-29T12:34:22.501Z,9.60
2018-03-29T12:35:22.638Z,9.60
2018-03-29T12:36:23.420Z,9.70
2018-03-29T12:37:23.032Z,8.80
2018-03-29T12:38:23.251Z,9.00
2018-03-29T12:39:23.402Z,8.60
2018-03-29T12:40:23.655Z,8.20
2018-03-29T12:41:23.762Z,8.40
2018-03-29T12:42:24.050Z,8.20
2018-03-29T12:43:24.024Z,8.70
2018-03-29T12:45:38.929Z,8.30
2018-03-29T12:46:37.087Z,8.30
2018-03-29T12:47:37.291Z,7.90
2018-03-29T12:48:37.342Z,8.00
2018-03-29T12:49:37.672Z,8.30
2018-03-29T12:50:37.677Z,7.80
2018-03-29T12:51:37.989Z,8.30
2018-03-29T12:52:38.007Z,8.60
2018-03-29T12:53:38.384Z,8.60
2018-03-29T12:54:38.571Z,9.00
2018-03-29T12:55:38.733Z,8.90
2018-03-29T12:56:38.707Z,9.30
2018-03-29T12:57:39.011Z,9.00
2018-03-29T12:58:38.995Z,8.90
2018-03-29T12:59:41.223Z,9.80
2018-03-29T13:00:39.370Z,10.20
2018-03-29T13:01:40.556Z,9.50
2018-03-29T13:02:39.696Z,9.60
2018-03-29T13:03:41.735Z,9.10
2018-03-29T13:04:40.084Z,9.60
2018-03-29T13:05:40.245Z,9.20
2018-03-29T13:06:40.219Z,10.30
2018-03-29T13:07:41.229Z,9.90
2018-03-29T13:08:40.756Z,9.30
2018-03-29T13:09:40.776Z,10.10
2018-03-29T13:10:40.899Z,10.00
2018-03-29T13:11:42.378Z,9.80
2018-03-29T13:12:41.271Z,9.90
2018-03-29T13:13:41.776Z,9.80
2018-03-29T13:14:41.857Z,11.20
2018-03-29T13:15:41.963Z,10.80